Nearby METAR Reports

 

KSJC - San Jose, California, USA
Distance from station: NE 14km
Updated: 2019-10-17 22:53
Few Clouds
Few Clouds
 Wind from NW
Wind: NW 15 km/h
Temperature: 14°C
Dew Point: 10°C
Humidity: 77%
Barometer: 1015.6 hPa
Clouds: Few Clouds
Visibility: 16 km
Cloud details: Few Clouds 366 m
2019/10/18 03:53 KSJC 180353Z 32008KT 10SM FEW012 14/10 A2999 RMK AO2 SLP156 T01440100
KNUQ - Moffett Nas/Mtn, California, USA
Distance from station: N 14km
Updated: 2019-10-17 22:56

 
Barometer: 1015.9 hPa
2019/10/18 03:56 KNUQ 180356Z A3000 RMK AO2 SLP163 PWINO $
 
KPAO - Palo Alto, California, USA
Distance from station: NNW 23km
Updated: 2019-10-17 22:47
Clear
Clear
 Wind from WNW
Wind: WNW 20 km/h
Temperature: 14°C
Dew Point: 9°C
Humidity: 72%
Barometer: 1015.6 hPa
Clouds: Clear
Visibility: 16 km
2019/10/18 03:47 KPAO 180347Z 30011KT 10SM SKC 14/09 A2999 RMK LAST
KRHV - San Jose/Reid, California, USA
Distance from station: ENE 19km
Updated: 2019-10-17 22:50
Partly cloudy
Partly cloudy
 Wind from NW
Wind: NW 13 km/h
Temperature: 14°C
Dew Point: 11°C
Humidity: 82%
Barometer: 1015.9 hPa
Clouds: Partly cloudy
Visibility: 16 km
Cloud details: Partly cloudy 366 m
2019/10/18 03:50 KRHV 180350Z 32007KT 10SM SCT012 14/11 A3000
 
KOAK - Oakland, California, USA
Distance from station: NNW 50km
Updated: 2019-10-17 22:53
Clear
Clear
 Wind from NW
Wind: NW 9 km/h
Temperature: 15°C
Dew Point: 9°C
Humidity: 68%
Barometer: 1015.9 hPa
Clouds: Clear
Visibility: 16 km
2019/10/18 03:53 KOAK 180353Z 32005KT 10SM CLR 15/09 A3000 RMK AO2 SLP157 T01500094
KSQL - San Carlos Airpo, California, USA
Distance from station: NW 34km
Updated: 2019-10-17 22:47
Clear
Clear
 Wind from W
Wind: W 17 km/h
Temperature: 15°C
Dew Point: 9°C
Humidity: 68%
Barometer: 1015.9 hPa
Clouds: Clear
Visibility: 16 km
2019/10/18 03:47 KSQL 180347Z 28009KT 10SM SKC 15/09 A3000 RMK LAST
 
KSFO - San Francisco, California, USA
Distance from station: NW 49km
Updated: 2019-10-17 22:56
Clear
Clear
 Wind from W
Wind: W 30 km/h
Temperature: 15°C
Dew Point: 9°C
Humidity: 68%
Barometer: 1015.6 hPa
Clouds: Clear
Visibility: 16 km
2019/10/18 03:56 KSFO 180356Z 27016KT 10SM CLR 15/09 A2999 RMK AO2 SLP155 T01500094
KE16 - San Martin, California, USA
Distance from station: ESE 43km
Updated: 2019-10-17 22:50
Clear
Clear
 Wind from NW
Wind: NW 17 km/h, Gust: 26 km/h
Temperature: 14°C
Dew Point: 10°C
Humidity: 77%
Barometer: 1016.3 hPa
Clouds: Clear
Visibility: 16 km
2019/10/18 03:50 KE16 180350Z AUTO 32009G14KT 10SM CLR 14/10 A3001 RMK AO2
 
KWVI - Watsonville, California, USA
Distance from station: SSE 44km
Updated: 2019-10-17 22:53
Clear
Clear
 Wind from calm
Wind: Calm
Temperature: 13°C
Dew Point: 7°C
Humidity: 67%
Barometer: 1015.6 hPa
Clouds: Clear
Visibility: 16 km
2019/10/18 03:53 KWVI 180353Z AUTO 00000KT 10SM CLR 13/07 A2999 RMK AO2 SLP155 T01280072
KHAF - Half Moon Bay, California, USA
Distance from station: WNW 50km
Updated: 2019-10-17 22:55
Few Clouds
Few Clouds
 Wind from N
Wind: N 17 km/h
Temperature: 13°C
Dew Point: 10°C
Humidity: 82%
Barometer: 1016.6 hPa
Clouds: Few Clouds
Visibility: 11 km
Cloud details: Few Clouds 427 m
2019/10/18 03:55 KHAF 180355Z AUTO 36009KT 7SM FEW014 13/10 A3002 RMK AO2
 
KHWD - Hayward, California, USA
Distance from station: N 44km
Updated: 2019-10-17 22:54
Clear
Clear
 Wind from NW
Wind: NW 13 km/h
Temperature: 15°C
Dew Point: 9°C
Humidity: 68%
Barometer: 1015.6 hPa
Clouds: Clear
Visibility: 16 km
2019/10/18 03:54 KHWD 180354Z AUTO 31007KT 10SM CLR 15/09 A2999 RMK AO2 SLP164 T01500089
KLVK - Livermore, California, USA
Distance from station: NNE 51km
Updated: 2019-10-17 22:53
Clear
Clear
 Wind from SW
Wind: SW 9 km/h
Temperature: 14°C
Dew Point: 8°C
Humidity: 67%
Barometer: 1015.2 hPa
Clouds: Clear
Visibility: 16 km
2019/10/18 03:53 KLVK 180353Z 23005KT 10SM CLR 14/08 A2998 RMK AO2 SLP149 T01390078